createdAt,value
2017-11-23T00:00:35.257Z,16.77
2017-11-23T00:03:02.727Z,16.27
2017-11-23T00:05:30.220Z,13.70
2017-11-23T00:07:57.687Z,14.60
2017-11-23T00:10:25.179Z,15.57
2017-11-23T00:12:52.647Z,15.57
2017-11-23T00:15:20.110Z,14.60
2017-11-23T00:17:47.619Z,14.90
2017-11-23T00:20:16.220Z,14.20
2017-11-23T00:22:43.696Z,14.83
2017-11-23T00:25:11.312Z,14.10
2017-11-23T00:27:38.791Z,14.57
2017-11-23T00:30:06.312Z,14.30
2017-11-23T00:32:33.825Z,12.03
2017-11-23T00:35:01.318Z,13.10
2017-11-23T00:37:28.846Z,12.40
2017-11-23T00:39:56.311Z,11.90
2017-11-23T00:42:27.620Z,11.13
2017-11-23T00:44:55.134Z,10.77
2017-11-23T00:47:22.581Z,12.30
2017-11-23T00:49:50.086Z,10.17
2017-11-23T00:52:18.602Z,10.07
2017-11-23T00:54:46.131Z,11.00
2017-11-23T00:57:13.601Z,10.03
2017-11-23T00:59:41.064Z,10.77
2017-11-23T01:02:08.604Z,10.67
2017-11-23T01:04:36.087Z,9.93
2017-11-23T01:07:03.565Z,10.03
2017-11-23T01:09:31.032Z,9.50
2017-11-23T01:11:58.490Z,10.47
2017-11-23T01:14:25.950Z,10.40
2017-11-23T01:16:53.400Z,10.40
2017-11-23T01:19:20.905Z,9.90
2017-11-23T01:21:49.085Z,9.67
2017-11-23T01:24:16.566Z,9.40
2017-11-23T01:26:44.028Z,9.50
2017-11-23T01:29:11.492Z,10.00
2017-11-23T01:31:38.960Z,11.27
2017-11-23T01:34:06.434Z,9.37
2017-11-23T01:36:36.812Z,8.83
2017-11-23T01:39:04.289Z,10.07
2017-11-23T01:41:31.776Z,9.30
2017-11-23T01:43:59.249Z,9.93
2017-11-23T01:46:26.713Z,9.57
2017-11-23T01:48:54.643Z,9.50
2017-11-23T01:51:22.094Z,11.13
2017-11-23T01:53:49.573Z,9.20
2017-11-23T01:56:17.940Z,10.20
2017-11-23T01:58:45.412Z,9.57
2017-11-23T02:01:12.896Z,10.67
2017-11-23T02:03:40.345Z,10.83
2017-11-23T02:06:07.848Z,13.30
2017-11-23T02:08:35.305Z,16.03
2017-11-23T02:11:02.769Z,15.00
2017-11-23T02:13:30.257Z,18.30
2017-11-23T02:15:57.729Z,20.17
2017-11-23T02:18:26.078Z,21.03
2017-11-23T02:20:53.618Z,26.60
2017-11-23T02:23:21.080Z,29.33
2017-11-23T02:25:48.626Z,38.27
2017-11-23T02:28:18.171Z,36.40
2017-11-23T02:30:47.846Z,39.57
2017-11-23T02:33:16.027Z,44.43
2017-11-23T02:35:43.533Z,46.53
2017-11-23T02:38:10.986Z,52.73
2017-11-23T02:40:38.465Z,56.30
2017-11-23T02:43:05.953Z,55.33
2017-11-23T02:45:33.417Z,57.33
2017-11-23T02:48:00.890Z,55.27
2017-11-23T02:50:28.408Z,54.97
2017-11-23T02:52:55.872Z,53.20
2017-11-23T02:55:23.363Z,54.57
2017-11-23T02:57:50.964Z,52.20
2017-11-23T03:00:18.435Z,50.90
2017-11-23T03:02:46.164Z,52.00
2017-11-23T03:05:13.632Z,50.83
2017-11-23T03:07:41.268Z,56.83
2017-11-23T03:10:08.745Z,60.10
2017-11-23T03:12:36.210Z,60.97
2017-11-23T03:15:03.690Z,57.93
2017-11-23T03:17:31.177Z,57.50
2017-11-23T03:19:59.372Z,60.03
2017-11-23T03:22:26.849Z,53.87
2017-11-23T03:24:54.297Z,53.67
2017-11-23T03:27:21.760Z,50.80
2017-11-23T03:29:49.224Z,50.83
2017-11-23T03:32:16.702Z,53.47
2017-11-23T03:34:44.168Z,52.17
2017-11-23T03:37:11.625Z,48.50
2017-11-23T03:39:39.095Z,50.50
2017-11-23T03:42:06.586Z,49.87
2017-11-23T03:44:42.027Z,49.37
2017-11-23T03:47:09.485Z,50.33
2017-11-23T03:49:36.955Z,52.73
2017-11-23T03:52:04.433Z,52.43
2017-11-23T03:54:31.929Z,51.40
2017-11-23T03:56:59.390Z,53.63
2017-11-23T03:59:26.868Z,49.63
2017-11-23T04:01:54.325Z,51.80
2017-11-23T04:04:21.821Z,48.83
2017-11-23T04:06:49.256Z,46.80
2017-11-23T04:09:18.169Z,49.10
2017-11-23T04:11:45.653Z,45.60
2017-11-23T04:14:13.114Z,46.20
2017-11-23T04:16:40.643Z,48.80
2017-11-23T04:19:08.223Z,49.33
2017-11-23T04:21:35.692Z,48.07
2017-11-23T04:24:03.187Z,48.00
2017-11-23T04:26:30.983Z,50.93
2017-11-23T04:28:58.565Z,48.90
2017-11-23T04:31:26.050Z,49.33
2017-11-23T04:33:53.508Z,50.23
2017-11-23T04:36:21.005Z,50.47
2017-11-23T04:38:48.460Z,46.47
2017-11-23T04:41:15.925Z,45.73
2017-11-23T04:43:43.433Z,47.60
2017-11-23T04:46:10.890Z,47.87
2017-11-23T04:48:38.448Z,48.47
2017-11-23T04:51:05.929Z,48.40
2017-11-23T04:53:33.376Z,46.63
2017-11-23T04:56:00.841Z,50.50
2017-11-23T04:58:28.304Z,48.00
2017-11-23T05:00:55.755Z,47.30
2017-11-23T05:03:23.236Z,45.53
2017-11-23T05:05:50.694Z,46.87
2017-11-23T05:08:18.151Z,41.60
2017-11-23T05:10:45.630Z,43.63
2017-11-23T05:13:13.093Z,41.80
2017-11-23T05:15:40.569Z,40.97
2017-11-23T05:18:08.063Z,37.20
2017-11-23T05:20:35.520Z,44.33
2017-11-23T05:23:03.011Z,40.60
2017-11-23T05:25:30.467Z,42.17
2017-11-23T05:27:57.957Z,42.53
2017-11-23T05:30:25.496Z,41.60
2017-11-23T05:32:53.005Z,41.37
2017-11-23T05:35:20.468Z,42.90
2017-11-23T05:37:47.975Z,40.33
2017-11-23T05:40:17.409Z,41.40
2017-11-23T05:42:45.120Z,38.57
2017-11-23T05:45:12.630Z,42.70
2017-11-23T05:47:40.104Z,41.73
2017-11-23T05:50:07.599Z,42.80
2017-11-23T05:52:35.064Z,41.53
2017-11-23T05:55:02.526Z,41.40
2017-11-23T05:57:29.980Z,38.13
2017-11-23T05:59:57.431Z,35.27
2017-11-23T06:02:24.940Z,41.40
2017-11-23T06:04:52.400Z,39.13
2017-11-23T06:07:19.860Z,38.83
2017-11-23T06:09:48.753Z,38.83
2017-11-23T06:12:16.224Z,35.97
2017-11-23T06:14:43.681Z,36.93
2017-11-23T06:17:11.756Z,36.10
2017-11-23T06:19:39.230Z,33.57
2017-11-23T06:22:06.708Z,34.43
2017-11-23T06:24:34.201Z,34.10
2017-11-23T06:27:01.662Z,34.10
2017-11-23T06:29:29.102Z,34.10
2017-11-23T06:31:56.565Z,35.70
2017-11-23T06:34:24.018Z,32.53
2017-11-23T06:36:51.481Z,33.70
2017-11-23T06:39:18.938Z,31.10
2017-11-23T06:41:46.396Z,31.73
2017-11-23T06:44:14.840Z,31.10
2017-11-23T06:46:42.309Z,32.13
2017-11-23T06:49:09.768Z,33.10
2017-11-23T06:51:37.228Z,32.20
2017-11-23T06:54:04.691Z,30.03
2017-11-23T06:56:33.523Z,31.93
2017-11-23T06:59:01.950Z,30.03
2017-11-23T07:01:29.421Z,30.57
2017-11-23T07:03:56.911Z,29.23
2017-11-23T07:06:24.425Z,30.67
2017-11-23T07:08:51.893Z,32.33
2017-11-23T07:11:19.347Z,30.23
2017-11-23T07:13:46.808Z,33.40
2017-11-23T07:16:15.180Z,33.70
2017-11-23T07:18:42.792Z,31.47
2017-11-23T07:21:10.260Z,29.60
2017-11-23T07:23:37.716Z,30.97
2017-11-23T07:26:05.533Z,31.57
2017-11-23T07:28:36.729Z,33.60
2017-11-23T07:31:04.177Z,30.77
2017-11-23T07:33:31.641Z,32.63
2017-11-23T07:35:59.097Z,32.63
2017-11-23T07:38:26.597Z,29.63
2017-11-23T07:40:54.045Z,31.27
2017-11-23T07:43:21.508Z,30.07
2017-11-23T07:45:48.981Z,32.40
2017-11-23T07:48:16.443Z,31.97
2017-11-23T07:50:43.968Z,29.17
2017-11-23T07:53:11.432Z,32.00
2017-11-23T07:55:38.878Z,30.43
2017-11-23T07:58:06.421Z,31.30
2017-11-23T08:00:33.875Z,29.23
2017-11-23T08:03:01.330Z,31.70
2017-11-23T08:05:28.796Z,31.03
2017-11-23T08:07:56.249Z,32.13
2017-11-23T08:10:23.708Z,30.83
2017-11-23T08:12:51.196Z,30.27
2017-11-23T08:15:19.448Z,30.37
2017-11-23T08:17:46.920Z,29.87
2017-11-23T08:20:14.456Z,29.70
2017-11-23T08:22:42.168Z,30.95
2017-11-23T08:25:09.636Z,31.70
2017-11-23T08:27:37.153Z,29.80
2017-11-23T08:30:04.744Z,29.53
2017-11-23T08:32:37.919Z,29.53
2017-11-23T08:35:05.392Z,29.03
2017-11-23T08:37:32.865Z,29.70
2017-11-23T08:40:00.364Z,29.37
2017-11-23T08:42:29.856Z,29.10
2017-11-23T08:44:57.342Z,28.97
2017-11-23T08:47:24.804Z,30.53
2017-11-23T08:49:52.273Z,29.60
2017-11-23T08:52:19.757Z,28.17
2017-11-23T08:54:52.737Z,29.83
2017-11-23T08:57:20.189Z,27.90
2017-11-23T08:59:47.661Z,28.43
2017-11-23T09:02:15.377Z,27.27
2017-11-23T09:04:42.849Z,27.87
2017-11-23T09:07:10.330Z,28.20
2017-11-23T09:09:37.842Z,30.80
2017-11-23T09:12:05.302Z,27.40
2017-11-23T09:14:32.833Z,27.53
2017-11-23T09:17:00.348Z,26.00
2017-11-23T09:19:27.834Z,29.57
2017-11-23T09:21:55.296Z,28.40
2017-11-23T09:24:22.790Z,29.60
2017-11-23T09:26:50.245Z,27.40
2017-11-23T09:29:17.712Z,28.77
2017-11-23T09:31:45.207Z,29.20
2017-11-23T09:34:12.661Z,27.73
2017-11-23T09:36:40.141Z,26.87
2017-11-23T09:39:07.654Z,27.93
2017-11-23T09:41:35.122Z,29.87
2017-11-23T09:44:02.617Z,28.03
2017-11-23T09:46:30.346Z,27.50
2017-11-23T09:48:57.836Z,28.33
2017-11-23T09:51:25.313Z,25.83
2017-11-23T09:53:52.821Z,29.63
2017-11-23T09:56:20.315Z,28.17
2017-11-23T09:58:47.801Z,26.60
2017-11-23T10:01:15.240Z,27.83
2017-11-23T10:03:42.700Z,27.53
2017-11-23T10:06:10.165Z,28.43
2017-11-23T10:08:37.632Z,29.83
2017-11-23T10:11:05.099Z,28.17
2017-11-23T10:13:32.578Z,29.60
2017-11-23T10:16:00.047Z,28.67
2017-11-23T10:18:27.759Z,27.67
2017-11-23T10:20:55.353Z,30.43
2017-11-23T10:23:22.797Z,30.37
2017-11-23T10:25:50.264Z,29.47
2017-11-23T10:28:17.854Z,30.17
2017-11-23T10:30:45.309Z,33.10
2017-11-23T10:33:12.784Z,28.53
2017-11-23T10:35:40.270Z,29.43
2017-11-23T10:38:07.730Z,30.13
2017-11-23T10:40:36.094Z,29.60
2017-11-23T10:43:03.587Z,29.67
2017-11-23T10:45:31.071Z,28.87
2017-11-23T10:47:58.526Z,28.17
2017-11-23T10:50:26.434Z,29.50
2017-11-23T10:52:53.884Z,32.20
2017-11-23T10:55:21.361Z,32.40
2017-11-23T10:57:48.803Z,32.07
2017-11-23T11:00:16.298Z,34.70
2017-11-23T11:02:43.790Z,36.90
2017-11-23T11:05:11.244Z,37.20
2017-11-23T11:07:38.706Z,35.87
2017-11-23T11:10:06.180Z,37.73
2017-11-23T11:12:33.634Z,56.10
2017-11-23T11:15:01.095Z,41.30
2017-11-23T11:17:28.571Z,64.77
2017-11-23T11:19:56.060Z,60.90
2017-11-23T11:22:23.531Z,42.83
2017-11-23T11:24:50.996Z,42.30
2017-11-23T11:27:18.460Z,45.60
2017-11-23T11:29:45.929Z,39.30
2017-11-23T11:32:13.423Z,38.03
2017-11-23T11:34:40.928Z,38.67
2017-11-23T11:37:08.405Z,34.50
2017-11-23T11:39:36.795Z,39.37
2017-11-23T11:42:04.268Z,39.53
2017-11-23T11:44:31.737Z,38.70
2017-11-23T11:46:59.257Z,41.17
2017-11-23T11:49:26.797Z,41.10
2017-11-23T11:51:54.296Z,41.10
2017-11-23T11:54:21.802Z,40.77
2017-11-23T11:56:49.328Z,39.47
2017-11-23T11:59:16.798Z,41.27
2017-11-23T12:01:44.304Z,38.53
2017-11-23T12:04:11.788Z,38.13
2017-11-23T12:06:39.276Z,36.30
2017-11-23T12:09:06.802Z,40.20
2017-11-23T12:11:34.307Z,38.83
2017-11-23T12:14:13.604Z,37.77
2017-11-23T12:16:52.731Z,39.80
2017-11-23T12:19:21.260Z,39.07
2017-11-23T12:21:54.598Z,38.20
2017-11-23T12:24:31.243Z,39.00
2017-11-23T12:26:58.761Z,41.67
2017-11-23T12:29:37.913Z,39.67
2017-11-23T12:32:05.406Z,40.80
2017-11-23T12:34:33.609Z,39.50
2017-11-23T12:37:01.144Z,42.90
2017-11-23T12:39:28.640Z,42.47
2017-11-23T12:41:56.109Z,44.23
2017-11-23T12:44:23.582Z,45.20
2017-11-23T12:46:51.050Z,45.63
2017-11-23T12:49:18.911Z,44.40
2017-11-23T12:51:46.378Z,45.23
2017-11-23T12:54:14.041Z,47.10
2017-11-23T12:56:41.545Z,45.30
2017-11-23T12:59:09.127Z,45.10
2017-11-23T13:01:36.581Z,43.50
2017-11-23T13:04:04.069Z,44.93
2017-11-23T13:06:31.912Z,47.57
2017-11-23T13:08:59.396Z,41.30
2017-11-23T13:11:27.057Z,43.23
2017-11-23T13:13:54.579Z,42.60
2017-11-23T13:16:22.064Z,41.70
2017-11-23T13:18:49.541Z,42.60
2017-11-23T13:21:17.381Z,40.60
2017-11-23T13:23:45.655Z,43.40
2017-11-23T13:26:13.130Z,41.53
2017-11-23T13:28:40.617Z,39.57
2017-11-23T13:31:08.082Z,42.27
2017-11-23T13:33:35.600Z,43.00
2017-11-23T13:36:03.086Z,42.23
2017-11-23T13:38:30.753Z,43.83
2017-11-23T13:40:58.261Z,45.60
2017-11-23T13:43:25.751Z,43.27
2017-11-23T13:45:53.241Z,45.93
2017-11-23T13:48:20.693Z,44.37
2017-11-23T13:50:48.152Z,42.13
2017-11-23T13:53:15.640Z,42.00
2017-11-23T13:55:43.097Z,42.03
2017-11-23T13:58:10.628Z,41.73
2017-11-23T14:00:38.135Z,38.97
2017-11-23T14:03:05.643Z,39.30
2017-11-23T14:05:33.139Z,41.50
2017-11-23T14:08:00.675Z,40.93
2017-11-23T14:10:28.141Z,42.27
2017-11-23T14:12:56.509Z,42.43
2017-11-23T14:15:23.986Z,38.40
2017-11-23T14:17:51.476Z,40.30
2017-11-23T14:20:18.918Z,37.97
2017-11-23T14:22:46.394Z,39.30
2017-11-23T14:25:13.863Z,36.97
2017-11-23T14:27:41.364Z,41.60
2017-11-23T14:30:08.828Z,40.37
2017-11-23T14:32:36.277Z,40.03
2017-11-23T14:35:03.772Z,39.77
2017-11-23T14:37:31.234Z,41.27
2017-11-23T14:39:58.703Z,40.77
2017-11-23T14:42:34.072Z,38.47
2017-11-23T14:45:01.589Z,45.33
2017-11-23T14:47:29.079Z,48.70
2017-11-23T14:49:56.587Z,45.03
2017-11-23T14:52:24.071Z,39.23
2017-11-23T14:54:51.551Z,37.07
2017-11-23T14:57:19.058Z,43.37
2017-11-23T14:59:46.529Z,43.70
2017-11-23T15:02:14.221Z,40.43
2017-11-23T15:04:41.721Z,40.37
2017-11-23T15:07:09.224Z,42.00
2017-11-23T15:09:36.673Z,39.00
2017-11-23T15:12:04.172Z,41.07
2017-11-23T15:14:31.738Z,40.60
2017-11-23T15:16:59.203Z,43.47
2017-11-23T15:19:26.708Z,38.40
2017-11-23T15:21:54.181Z,42.27
2017-11-23T15:24:21.760Z,60.90
2017-11-23T15:26:49.259Z,117.23
2017-11-23T15:29:16.719Z,60.43
2017-11-23T15:31:44.226Z,53.63
2017-11-23T15:34:11.706Z,60.73
2017-11-23T15:36:39.294Z,49.00
2017-11-23T15:39:06.781Z,50.80
2017-11-23T15:41:34.356Z,54.27
2017-11-23T15:44:02.326Z,42.27
2017-11-23T15:46:29.812Z,39.17
2017-11-23T15:48:57.348Z,42.17
2017-11-23T15:51:24.875Z,43.07
2017-11-23T15:53:52.359Z,45.67
2017-11-23T15:56:19.897Z,44.20
2017-11-23T15:58:47.361Z,43.70
2017-11-23T16:01:14.834Z,40.70
2017-11-23T16:03:42.334Z,41.90
2017-11-23T16:06:09.805Z,42.83
2017-11-23T16:08:37.258Z,39.73
2017-11-23T16:11:04.743Z,40.60
2017-11-23T16:13:32.232Z,40.60
2017-11-23T16:15:59.703Z,38.87
2017-11-23T16:18:30.349Z,41.07
2017-11-23T16:20:57.806Z,38.40
2017-11-23T16:23:25.268Z,40.10
2017-11-23T16:25:52.721Z,40.43
2017-11-23T16:28:20.258Z,41.67
2017-11-23T16:30:47.730Z,41.50
2017-11-23T16:33:15.549Z,41.80
2017-11-23T16:35:44.225Z,40.20
2017-11-23T16:38:12.606Z,40.40
2017-11-23T16:40:57.738Z,40.07
2017-11-23T16:43:26.936Z,39.07
2017-11-23T16:46:04.977Z,40.73
2017-11-23T16:48:47.663Z,42.00
2017-11-23T16:54:27.909Z,38.07
2017-11-23T16:57:00.865Z,38.33
2017-11-23T16:59:33.958Z,38.47
2017-11-23T17:02:06.919Z,39.57
2017-11-23T17:04:44.868Z,42.07
2017-11-23T17:07:14.853Z,38.43
2017-11-23T17:09:48.016Z,38.03
2017-11-23T17:12:25.791Z,38.50
2017-11-23T17:14:58.875Z,39.30
2017-11-23T17:17:36.296Z,40.93
2017-11-23T17:20:03.761Z,39.53
2017-11-23T17:22:31.232Z,40.50
2017-11-23T17:24:58.694Z,40.87
2017-11-23T17:27:26.152Z,41.40
2017-11-23T17:29:53.673Z,38.10
2017-11-23T17:32:21.159Z,40.17
2017-11-23T17:34:48.607Z,36.10
2017-11-23T17:37:16.100Z,39.87
2017-11-23T17:39:43.560Z,40.03
2017-11-23T17:42:11.067Z,39.20
2017-11-23T17:44:38.555Z,40.67
2017-11-23T17:47:06.014Z,39.50
2017-11-23T17:49:34.389Z,39.27
2017-11-23T17:52:01.880Z,42.40
2017-11-23T17:54:29.821Z,43.03
2017-11-23T17:56:57.286Z,42.10
2017-11-23T17:59:24.763Z,43.67
2017-11-23T18:01:52.275Z,41.70
2017-11-23T18:04:19.764Z,39.83
2017-11-23T18:06:47.558Z,42.87
2017-11-23T18:09:16.063Z,40.83
2017-11-23T18:11:43.547Z,42.17
2017-11-23T18:14:11.000Z,40.83
2017-11-23T18:16:38.474Z,41.20
2017-11-23T18:19:05.938Z,45.07
2017-11-23T18:21:33.391Z,43.23
2017-11-23T18:24:00.867Z,39.60
2017-11-23T18:26:28.328Z,41.90
2017-11-23T18:28:55.807Z,44.90
2017-11-23T18:31:23.279Z,45.00
2017-11-23T18:33:50.749Z,43.00
2017-11-23T18:36:18.214Z,44.60
2017-11-23T18:38:45.670Z,45.10
2017-11-23T18:41:13.141Z,43.10
2017-11-23T18:43:40.597Z,41.53
2017-11-23T18:46:08.090Z,44.43
2017-11-23T18:48:35.580Z,45.13
2017-11-23T18:51:03.101Z,41.77
2017-11-23T18:53:30.596Z,41.83
2017-11-23T18:55:58.155Z,43.30
2017-11-23T18:58:25.646Z,41.27
2017-11-23T19:00:53.089Z,43.63
2017-11-23T19:03:20.597Z,40.30
2017-11-23T19:05:48.124Z,43.27
2017-11-23T19:08:15.700Z,41.77
2017-11-23T19:10:43.156Z,41.97
2017-11-23T19:13:10.619Z,44.60
2017-11-23T19:15:38.081Z,42.40
2017-11-23T19:18:05.567Z,44.00
2017-11-23T19:20:33.038Z,44.07
2017-11-23T19:23:00.524Z,45.90
2017-11-23T19:25:28.000Z,50.80
2017-11-23T19:27:55.497Z,46.70
2017-11-23T19:30:23.119Z,45.37
2017-11-23T19:32:50.581Z,45.77
2017-11-23T19:35:18.038Z,50.63
2017-11-23T19:37:45.518Z,51.27
2017-11-23T19:40:12.979Z,47.80
2017-11-23T19:42:40.471Z,50.57
2017-11-23T19:45:07.938Z,53.13
2017-11-23T19:47:35.437Z,48.87
2017-11-23T19:50:02.946Z,54.60
2017-11-23T19:52:30.429Z,50.90
2017-11-23T19:54:57.908Z,50.70
2017-11-23T19:57:25.474Z,55.03
2017-11-23T19:59:52.941Z,47.47
2017-11-23T20:02:20.493Z,49.10
2017-11-23T20:04:47.975Z,55.70
2017-11-23T20:07:15.574Z,49.73
2017-11-23T20:09:43.061Z,49.47
2017-11-23T20:12:10.563Z,49.30
2017-11-23T20:14:38.020Z,48.40
2017-11-23T20:17:05.533Z,48.80
2017-11-23T20:19:34.310Z,47.60
2017-11-23T20:22:01.801Z,50.00
2017-11-23T20:24:30.225Z,52.20
2017-11-23T20:26:57.801Z,51.20
2017-11-23T20:29:25.546Z,45.67
2017-11-23T20:31:53.268Z,48.60
2017-11-23T20:34:20.736Z,49.47
2017-11-23T20:36:50.113Z,49.73
2017-11-23T20:39:17.817Z,54.33
2017-11-23T20:41:45.340Z,47.67
2017-11-23T20:44:12.817Z,47.77
2017-11-23T20:46:40.307Z,51.77
2017-11-23T20:49:07.958Z,47.20
2017-11-23T20:51:35.428Z,47.73
2017-11-23T20:54:03.957Z,57.90
2017-11-23T20:56:32.903Z,51.60
2017-11-23T20:59:00.440Z,50.03
2017-11-23T21:01:28.121Z,49.90
2017-11-23T21:03:55.645Z,47.67
2017-11-23T21:06:23.704Z,47.00
2017-11-23T21:08:51.263Z,46.83
2017-11-23T21:11:18.755Z,42.90
2017-11-23T21:13:47.339Z,45.27
2017-11-23T21:16:16.887Z,44.17
2017-11-23T21:18:44.752Z,46.60
2017-11-23T21:21:12.282Z,45.57
2017-11-23T21:23:39.808Z,45.30
2017-11-23T21:26:07.332Z,47.77
2017-11-23T21:28:37.159Z,45.70
2017-11-23T21:31:04.749Z,46.90
2017-11-23T21:33:32.347Z,48.83
2017-11-23T21:35:59.889Z,48.40
2017-11-23T21:38:27.771Z,49.50
2017-11-23T21:40:55.477Z,49.40
2017-11-23T21:43:22.980Z,47.10
2017-11-23T21:45:50.475Z,45.60
2017-11-23T21:48:18.052Z,45.30
2017-11-23T21:50:45.625Z,43.47
2017-11-23T21:53:13.149Z,47.30
2017-11-23T21:55:40.674Z,43.47
2017-11-23T21:58:08.198Z,43.20
2017-11-23T22:00:35.670Z,43.60
2017-11-23T22:03:03.129Z,43.37
2017-11-23T22:05:30.605Z,43.73
2017-11-23T22:07:58.384Z,44.50
2017-11-23T22:10:25.862Z,42.97
2017-11-23T22:12:54.405Z,44.87
2017-11-23T22:15:21.869Z,42.60
2017-11-23T22:17:49.330Z,44.50
2017-11-23T22:20:17.098Z,45.00
2017-11-23T22:22:44.553Z,45.27
2017-11-23T22:25:12.019Z,41.83
2017-11-23T22:27:39.505Z,45.50
2017-11-23T22:30:06.970Z,45.80
2017-11-23T22:32:35.959Z,44.53
2017-11-23T22:35:03.401Z,41.70
2017-11-23T22:37:30.860Z,42.10
2017-11-23T22:39:58.341Z,43.47
2017-11-23T22:42:25.843Z,43.10
2017-11-23T22:44:53.385Z,41.07
2017-11-23T22:47:20.922Z,41.40
2017-11-23T22:49:48.401Z,42.23
2017-11-23T22:52:17.046Z,43.57
2017-11-23T22:54:44.567Z,46.27
2017-11-23T22:57:12.125Z,44.10
2017-11-23T22:59:39.693Z,42.47
2017-11-23T23:02:07.207Z,43.80
2017-11-23T23:04:34.781Z,40.07
2017-11-23T23:07:02.365Z,41.17
2017-11-23T23:09:29.933Z,43.10
2017-11-23T23:11:57.455Z,41.83
2017-11-23T23:14:24.929Z,41.47
2017-11-23T23:16:52.384Z,41.70
2017-11-23T23:19:19.896Z,39.87
2017-11-23T23:21:47.374Z,41.20
2017-11-23T23:24:14.854Z,43.13
2017-11-23T23:26:42.349Z,39.53
2017-11-23T23:29:09.891Z,39.50
2017-11-23T23:31:38.322Z,40.87
2017-11-23T23:34:05.782Z,39.67
2017-11-23T23:36:33.257Z,40.23
2017-11-23T23:39:00.763Z,38.87
2017-11-23T23:41:28.221Z,38.77
2017-11-23T23:43:55.682Z,39.27
2017-11-23T23:46:23.185Z,40.10
2017-11-23T23:48:50.661Z,42.30
2017-11-23T23:51:19.749Z,41.83
2017-11-23T23:53:47.256Z,43.73
2017-11-23T23:56:14.708Z,39.90
2017-11-23T23:58:42.196Z,40.33
